Time;durP1;ratioP1;P1;durP2;ratioP2;P2;SDS_P1;SDS_P2;PMS_P1;PMS_P2;Temp;Humidity;BMP_temperature;BMP_pressure;BME280_temperature;BME280_humidity;BME280_pressure;Samples;Min_cycle;Max_cycle;Signal;HPM_P1;HPM_P2
2024/03/07 00:01:55;;;;;;;18.15;8.15;;;3.20;99.90;;;;;;5029310;28;20131;-69
2024/03/07 00:04:21;;;;;;;18.97;8.30;;;3.10;99.90;;;;;;5029858;28;20112;-68
2024/03/07 00:06:46;;;;;;;20.08;8.20;;;3.00;99.90;;;;;;5029378;28;20343;-69
2024/03/07 00:09:12;;;;;;;16.83;7.90;;;3.00;99.90;;;;;;5027910;28;20083;-69
2024/03/07 00:11:38;;;;;;;16.07;7.63;;;3.00;99.90;;;;;;5011145;28;20037;-70
2024/03/07 00:14:05;;;;;;;18.88;8.57;;;3.00;99.90;;;;;;5009906;28;20029;-68
2024/03/07 00:16:33;;;;;;;20.92;8.55;;;2.80;99.90;;;;;;5009801;28;20041;-68
2024/03/07 00:19:00;;;;;;;19.45;9.18;;;2.80;99.90;;;;;;5010172;28;20109;-68
2024/03/07 00:21:26;;;;;;;19.67;9.07;;;2.90;99.90;;;;;;5021528;28;20094;-68
2024/03/07 00:23:53;;;;;;;27.42;9.35;;;2.80;99.90;;;;;;5049981;28;20033;-70
2024/03/07 00:26:19;;;;;;;33.70;10.85;;;2.80;99.90;;;;;;5049836;28;20554;-69
2024/03/07 00:28:45;;;;;;;23.47;9.57;;;2.70;99.90;;;;;;5049604;28;20033;-69
2024/03/07 00:31:10;;;;;;;25.60;10.73;;;2.60;99.90;;;;;;5049423;28;20408;-69
2024/03/07 00:33:36;;;;;;;18.25;9.88;;;2.70;99.90;;;;;;5049432;28;20037;-69
2024/03/07 00:36:02;;;;;;;21.02;9.65;;;2.60;99.90;;;;;;5049339;28;20044;-68
2024/03/07 00:38:28;;;;;;;17.70;8.82;;;2.70;99.90;;;;;;5049308;28;20029;-68
2024/03/07 00:40:53;;;;;;;23.37;9.60;;;2.70;99.90;;;;;;5043684;28;20112;-69
2024/03/07 00:43:20;;;;;;;20.17;8.40;;;2.60;99.90;;;;;;5028868;28;20485;-69
2024/03/07 00:45:49;;;;;;;18.70;8.20;;;2.50;99.90;;;;;;5028977;28;20108;-69
2024/03/07 00:48:15;;;;;;;23.63;8.80;;;2.50;99.90;;;;;;5029102;28;20171;-68
2024/03/07 00:50:42;;;;;;;20.20;9.68;;;2.40;99.90;;;;;;5029449;28;20552;-68
2024/03/07 00:53:08;;;;;;;28.55;12.30;;;2.40;99.90;;;;;;5028937;28;20037;-69
2024/03/07 00:55:34;;;;;;;23.80;9.05;;;2.50;99.90;;;;;;5028879;28;20083;-69
2024/03/07 00:57:59;;;;;;;23.60;10.20;;;2.50;99.90;;;;;;5029208;28;20515;-68
2024/03/07 01:00:25;;;;;;;27.13;9.27;;;2.50;99.90;;;;;;5028761;28;20037;-69
2024/03/07 01:02:53;;;;;;;20.63;9.53;;;2.40;99.90;;;;;;5029026;28;20029;-68
2024/03/07 01:05:19;;;;;;;25.33;11.27;;;2.40;99.90;;;;;;5027895;28;20423;-69
2024/03/07 01:07:47;;;;;;;23.00;11.20;;;2.30;99.90;;;;;;5028858;28;20943;-68
2024/03/07 01:10:14;;;;;;;22.13;10.27;;;2.30;99.90;;;;;;5021491;28;20136;-69
2024/03/07 01:12:39;;;;;;;23.58;10.98;;;2.20;99.90;;;;;;5008747;28;20493;-69
2024/03/07 01:15:05;;;;;;;21.20;9.43;;;2.30;99.90;;;;;;5008819;28;20073;-68
2024/03/07 01:17:32;;;;;;;28.38;10.45;;;2.20;99.90;;;;;;5008746;28;20448;-69
2024/03/07 01:19:58;;;;;;;21.60;9.50;;;2.20;99.90;;;;;;5008540;28;20175;-68
2024/03/07 01:22:24;;;;;;;17.00;9.48;;;2.20;99.90;;;;;;5009169;28;20034;-68
2024/03/07 01:24:50;;;;;;;21.73;8.95;;;2.10;99.90;;;;;;5008462;28;20042;-69
2024/03/07 01:27:16;;;;;;;;;;;2.10;99.90;;;;;;5008751;28;20025;-69
2024/03/07 01:29:44;;;;;;;21.80;10.07;;;2.10;99.90;;;;;;5008653;28;19909;-68
2024/03/07 01:32:10;;;;;;;21.90;9.30;;;2.10;99.90;;;;;;5008365;28;20026;-69
2024/03/07 01:34:36;;;;;;;21.30;9.18;;;2.20;99.90;;;;;;5008515;28;20669;-68
2024/03/07 01:37:01;;;;;;;17.92;8.65;;;2.20;99.90;;;;;;5008406;28;20028;-69
2024/03/07 01:39:27;;;;;;;22.20;9.33;;;2.20;99.90;;;;;;5008605;28;20038;-69
2024/03/07 01:41:53;;;;;;;25.65;9.35;;;2.20;99.90;;;;;;5008923;28;20042;-69
2024/03/07 01:44:18;;;;;;;16.52;8.00;;;2.10;99.90;;;;;;5008835;28;20030;-69
2024/03/07 01:46:44;;;;;;;24.00;9.67;;;2.10;99.90;;;;;;5008025;28;20030;-68
2024/03/07 01:49:11;;;;;;;20.60;8.02;;;2.10;99.90;;;;;;5008577;28;20037;-69
2024/03/07 01:51:38;;;;;;;20.30;8.15;;;2.10;99.90;;;;;;5008284;28;20421;-68
2024/03/07 01:54:07;;;;;;;15.45;7.03;;;2.10;99.90;;;;;;5022914;28;20025;-68
2024/03/07 01:56:33;;;;;;;15.70;8.40;;;2.00;99.90;;;;;;5028211;28;20033;-69
2024/03/07 01:59:01;;;;;;;19.87;8.37;;;2.00;99.90;;;;;;5028873;28;20030;-68
2024/03/07 02:01:27;;;;;;;22.52;8.90;;;2.00;99.90;;;;;;5028270;28;20288;-68
2024/03/07 02:03:53;;;;;;;19.70;8.30;;;1.90;99.90;;;;;;5027903;28;20032;-68
2024/03/07 02:06:19;;;;;;;18.85;8.45;;;1.90;99.90;;;;;;5027469;28;20036;-68
2024/03/07 02:08:45;;;;;;;18.42;8.70;;;1.80;99.90;;;;;;5027524;28;20029;-68
2024/03/07 02:11:10;;;;;;;21.58;9.52;;;1.80;99.90;;;;;;5027808;28;20069;-69
2024/03/07 02:13:36;;;;;;;25.98;11.45;;;1.80;99.90;;;;;;5027533;28;20033;-70
2024/03/07 02:16:02;;;;;;;24.08;10.27;;;1.80;99.90;;;;;;5027827;28;20049;-68
2024/03/07 02:18:31;;;;;;;17.02;8.20;;;1.80;99.90;;;;;;5027495;28;20018;-68
2024/03/07 02:20:57;;;;;;;16.75;7.88;;;1.80;99.90;;;;;;5027677;28;20033;-69
2024/03/07 02:23:23;;;;;;;14.45;8.05;;;1.80;99.90;;;;;;5043501;28;20033;-68
2024/03/07 02:25:49;;;;;;;23.87;8.40;;;1.70;99.90;;;;;;5047655;28;20033;-69
2024/03/07 02:28:14;;;;;;;22.73;8.87;;;1.70;99.90;;;;;;5030860;28;20111;-67
2024/03/07 02:30:40;;;;;;;18.03;8.10;;;1.70;99.90;;;;;;5016692;28;20034;-68
2024/03/07 02:33:09;;;;;;;21.20;7.93;;;1.70;99.90;;;;;;5022499;28;20288;-68
2024/03/07 02:35:35;;;;;;;18.23;7.78;;;1.70;99.90;;;;;;5008047;28;20050;-68
2024/03/07 02:38:05;;;;;;;15.90;7.68;;;1.70;99.90;;;;;;5007855;28;20033;-69
2024/03/07 02:40:31;;;;;;;18.38;7.82;;;1.70;99.90;;;;;;5007543;28;20034;-69
2024/03/07 02:42:57;;;;;;;17.70;8.48;;;1.60;99.90;;;;;;5022933;28;20378;-69
2024/03/07 02:45:23;;;;;;;14.50;7.93;;;1.60;99.90;;;;;;5007965;28;20038;-68
2024/03/07 02:47:49;;;;;;;14.15;7.93;;;1.60;99.90;;;;;;5007566;28;20188;-68
2024/03/07 02:50:15;;;;;;;20.75;7.35;;;1.60;99.90;;;;;;5022802;28;20556;-68
2024/03/07 02:52:40;;;;;;;17.67;8.48;;;1.60;99.90;;;;;;5010809;28;20029;-68
2024/03/07 02:55:10;;;;;;;23.07;9.07;;;1.50;99.90;;;;;;5027332;28;20493;-69
2024/03/07 02:57:36;;;;;;;23.58;8.70;;;1.50;99.90;;;;;;5026640;28;21039;-68
2024/03/07 03:00:02;;;;;;;16.83;8.00;;;1.50;99.90;;;;;;5027304;28;20042;-68
2024/03/07 03:02:28;;;;;;;19.05;8.05;;;1.50;99.90;;;;;;5025991;28;20910;-68
2024/03/07 03:04:54;;;;;;;19.05;8.10;;;1.50;99.90;;;;;;5027636;28;20167;-68
2024/03/07 03:07:20;;;;;;;27.88;8.95;;;1.40;99.90;;;;;;5030129;28;20099;-68
2024/03/07 03:09:46;;;;;;;22.88;9.30;;;1.40;99.90;;;;;;5046823;28;20025;-68
2024/03/07 03:12:12;;;;;;;;;;;1.40;99.90;;;;;;5031679;28;20052;-69
2024/03/07 03:14:38;;;;;;;17.02;8.10;;;1.40;99.90;;;;;;5031116;28;20758;-68
2024/03/07 03:17:04;;;;;;;17.40;8.52;;;1.40;99.90;;;;;;5031112;28;20102;-68
2024/03/07 03:19:29;;;;;;;17.23;8.48;;;1.30;99.90;;;;;;5027886;28;20477;-68
2024/03/07 03:21:55;;;;;;;21.20;9.23;;;1.40;99.90;;;;;;5031039;28;20037;-69
2024/03/07 03:24:21;;;;;;;18.50;9.05;;;1.40;99.90;;;;;;5030868;28;20703;-68
2024/03/07 03:26:47;;;;;;;22.17;8.40;;;1.30;99.90;;;;;;5030438;28;20036;-68
2024/03/07 03:29:13;;;;;;;22.17;8.55;;;1.40;99.90;;;;;;5030947;28;20033;-68
2024/03/07 03:31:39;;;;;;;16.08;8.60;;;1.40;99.90;;;;;;5030922;28;20029;-68
2024/03/07 03:34:05;;;;;;;17.08;8.77;;;1.40;99.90;;;;;;5030315;28;20457;-68
2024/03/07 03:36:31;;;;;;;18.67;8.02;;;1.40;99.90;;;;;;5030541;28;20041;-68
2024/03/07 03:38:56;;;;;;;22.67;8.82;;;1.50;99.90;;;;;;5031082;28;20029;-69
2024/03/07 03:41:23;;;;;;;19.25;8.80;;;1.40;99.90;;;;;;5031262;28;20109;-68
2024/03/07 03:43:48;;;;;;;12.68;7.85;;;1.40;99.90;;;;;;5031152;28;20492;-69
2024/03/07 03:46:14;;;;;;;18.38;9.15;;;1.40;99.90;;;;;;5030314;28;20033;-68
2024/03/07 03:48:40;;;;;;;23.88;8.40;;;1.30;99.90;;;;;;5030461;28;20499;-68
2024/03/07 03:51:09;;;;;;;21.92;9.43;;;1.20;99.90;;;;;;5029895;28;20029;-68
2024/03/07 03:53:36;;;;;;;18.48;8.45;;;1.20;99.90;;;;;;5018854;28;20088;-69
2024/03/07 03:56:04;;;;;;;26.15;9.52;;;1.20;99.90;;;;;;5014290;28;20025;-69
2024/03/07 03:58:30;;;;;;;18.60;9.82;;;1.20;99.90;;;;;;5030067;28;20032;-68
2024/03/07 04:00:58;;;;;;;22.23;11.60;;;1.20;99.90;;;;;;5030397;28;20057;-68
2024/03/07 04:03:24;;;;;;;23.90;11.07;;;1.10;99.90;;;;;;5030247;28;20038;-69
2024/03/07 04:05:49;;;;;;;15.50;8.27;;;1.20;99.90;;;;;;5029951;28;20566;-68
2024/03/07 04:08:15;;;;;;;19.37;9.40;;;1.30;99.90;;;;;;5030032;28;20113;-67
2024/03/07 04:10:41;;;;;;;19.27;8.63;;;1.10;99.90;;;;;;5029725;28;20338;-68
2024/03/07 04:13:07;;;;;;;18.92;9.20;;;1.10;99.90;;;;;;5029883;28;20323;-68
2024/03/07 04:15:33;;;;;;;20.58;8.77;;;1.20;99.90;;;;;;5029637;28;20065;-68
2024/03/07 04:17:59;;;;;;;25.60;8.90;;;1.20;99.90;;;;;;5028996;28;20100;-69
2024/03/07 04:20:25;;;;;;;20.63;8.98;;;1.10;99.90;;;;;;5029973;28;20041;-69
2024/03/07 04:22:50;;;;;;;21.70;8.60;;;1.10;99.90;;;;;;5029712;28;20037;-69
2024/03/07 04:25:16;;;;;;;31.67;10.55;;;1.10;99.90;;;;;;5033142;28;20034;-71
2024/03/07 04:27:42;;;;;;;23.02;9.45;;;1.10;99.90;;;;;;5049641;28;20031;-69
2024/03/07 04:30:11;;;;;;;23.73;10.77;;;1.10;99.90;;;;;;5049223;28;20036;-68
2024/03/07 04:32:38;;;;;;;20.48;9.80;;;1.10;99.90;;;;;;5049079;28;20037;-69
2024/03/07 04:35:10;;;;;;;21.02;9.63;;;1.10;99.90;;;;;;5049043;28;20045;-68
2024/03/07 04:37:36;;;;;;;19.15;8.95;;;1.10;99.90;;;;;;5049359;28;20032;-68
2024/03/07 04:40:04;;;;;;;;;;;1.00;99.90;;;;;;5050085;28;20452;-69
2024/03/07 04:42:30;;;;;;;21.17;9.30;;;1.10;99.90;;;;;;5049316;28;19909;-71
2024/03/07 04:44:56;;;;;;;21.40;9.20;;;1.10;99.90;;;;;;5049628;28;20500;-69
2024/03/07 04:47:21;;;;;;;23.00;8.90;;;1.00;99.90;;;;;;5049121;28;20056;-69
2024/03/07 04:49:47;;;;;;;23.63;9.23;;;1.00;99.90;;;;;;5048566;28;20032;-68
2024/03/07 04:52:13;;;;;;;17.50;9.20;;;1.00;99.90;;;;;;5049011;28;20037;-68
2024/03/07 04:54:38;;;;;;;21.93;9.30;;;0.90;99.90;;;;;;5029223;28;20029;-68
2024/03/07 04:57:05;;;;;;;22.73;9.77;;;1.00;99.90;;;;;;5029097;28;20049;-68
2024/03/07 04:59:31;;;;;;;21.00;9.98;;;1.00;99.90;;;;;;5029284;28;20033;-68
2024/03/07 05:01:57;;;;;;;20.50;9.83;;;1.00;99.90;;;;;;5029537;28;20033;-67
2024/03/07 05:04:23;;;;;;;;;;;0.90;99.90;;;;;;5028711;28;20021;-69
2024/03/07 05:06:49;;;;;;;21.95;9.70;;;0.90;99.90;;;;;;5022834;28;19913;-68
2024/03/07 05:09:25;;;;;;;19.80;9.47;;;0.80;99.90;;;;;;5020209;28;20033;-68
2024/03/07 05:11:54;;;;;;;16.05;9.15;;;0.90;99.90;;;;;;5026112;28;20408;-67
2024/03/07 05:14:21;;;;;;;21.48;9.80;;;0.90;99.90;;;;;;5020214;28;20526;-69
2024/03/07 05:17:04;;;;;;;19.70;9.60;;;0.90;99.90;;;;;;5023493;28;20497;-71
2024/03/07 05:19:33;;;;;;;19.88;9.88;;;0.90;99.90;;;;;;5017945;28;20034;-74
2024/03/07 05:22:00;;;;;;;21.48;10.18;;;0.90;99.90;;;;;;5023935;28;20028;-68
2024/03/07 05:24:26;;;;;;;25.38;10.40;;;0.90;99.90;;;;;;5025961;28;20028;-75
2024/03/07 05:26:53;;;;;;;27.20;10.93;;;0.90;99.90;;;;;;5030946;28;20036;-75
2024/03/07 05:29:19;;;;;;;21.13;9.65;;;0.80;99.90;;;;;;5032584;28;20458;-69
2024/03/07 05:31:46;;;;;;;27.15;10.57;;;0.80;99.90;;;;;;5024845;28;20894;-69
2024/03/07 05:34:13;;;;;;;22.88;11.20;;;0.80;99.90;;;;;;5026695;28;20079;-69
2024/03/07 05:36:47;;;;;;;;;;;0.80;99.90;;;;;;5025113;28;20037;-70
2024/03/07 05:39:14;;;;;;;22.88;9.90;;;0.70;99.90;;;;;;5029582;28;19917;-69
2024/03/07 05:41:42;;;;;;;17.58;9.73;;;0.70;99.90;;;;;;5025055;28;20109;-68
2024/03/07 05:44:11;;;;;;;22.25;10.70;;;0.70;99.90;;;;;;5025961;28;20029;-68
2024/03/07 05:46:46;;;;;;;26.58;9.88;;;0.70;99.90;;;;;;5026668;28;20066;-68
2024/03/07 05:49:16;;;;;;;16.23;9.48;;;0.70;99.90;;;;;;5025298;28;20026;-67
2024/03/07 05:51:44;;;;;;;27.75;10.20;;;0.70;99.90;;;;;;5026931;28;20029;-69
2024/03/07 05:54:13;;;;;;;24.83;10.27;;;0.70;99.90;;;;;;5024481;28;20038;-68
2024/03/07 05:56:39;;;;;;;23.35;9.45;;;0.70;99.90;;;;;;5022051;28;20135;-68
2024/03/07 05:59:11;;;;;;;;;;;0.70;99.90;;;;;;5026666;28;20182;-68
2024/03/07 06:01:37;;;;;;;19.73;10.05;;;0.70;99.90;;;;;;5026451;28;19909;-68
2024/03/07 06:04:06;;;;;;;23.45;9.48;;;0.50;99.90;;;;;;5027615;28;20029;-68
2024/03/07 06:06:33;;;;;;;25.48;9.90;;;0.60;99.90;;;;;;5024978;28;20021;-68
2024/03/07 06:09:08;;;;;;;17.08;8.98;;;0.50;99.90;;;;;;5024585;28;20530;-68
2024/03/07 06:11:38;;;;;;;20.42;9.82;;;0.60;99.90;;;;;;5019565;28;20025;-69
2024/03/07 06:14:05;;;;;;;26.65;10.38;;;0.60;99.90;;;;;;5028126;28;20045;-68
2024/03/07 06:16:32;;;;;;;19.05;9.75;;;0.70;99.90;;;;;;5017382;28;20508;-67
2024/03/07 06:18:59;;;;;;;21.95;10.80;;;0.70;99.90;;;;;;5022946;28;20074;-68
2024/03/07 06:21:25;;;;;;;23.95;10.15;;;0.70;99.90;;;;;;5029970;28;20057;-67
2024/03/07 06:23:59;;;;;;;23.50;10.18;;;0.80;99.90;;;;;;5027430;28;20059;-70
2024/03/07 06:29:19;;;;;;;28.40;10.73;;;1.00;99.90;;;;;;5024273;28;20029;-68
2024/03/07 06:31:49;;;;;;;26.77;12.05;;;1.00;99.90;;;;;;5026230;28;20029;-70
2024/03/07 06:34:15;;;;;;;19.63;10.15;;;0.90;99.90;;;;;;5022836;28;20037;-68
2024/03/07 06:36:41;;;;;;;22.70;10.18;;;0.90;99.90;;;;;;5024590;28;20037;-68
2024/03/07 06:39:07;;;;;;;21.35;10.80;;;1.00;99.90;;;;;;5025423;28;20025;-69
2024/03/07 06:41:36;;;;;;;25.38;11.48;;;1.00;99.90;;;;;;5025259;28;20492;-69
2024/03/07 06:44:02;;;;;;;18.50;9.93;;;1.20;99.90;;;;;;5029379;28;20038;-71
2024/03/07 06:46:28;;;;;;;28.73;11.63;;;1.20;99.90;;;;;;5029209;28;20563;-72
2024/03/07 06:48:55;;;;;;;19.88;10.32;;;1.30;99.90;;;;;;5035458;28;20046;-73
2024/03/07 06:51:22;;;;;;;27.55;10.40;;;1.40;99.90;;;;;;5031750;28;20029;-72
2024/03/07 06:53:48;;;;;;;;;;;1.30;99.90;;;;;;5036170;28;20022;-72
2024/03/07 06:56:14;;;;;;;18.77;10.77;;;1.30;99.90;;;;;;5035647;28;19931;-71
2024/03/07 06:58:40;;;;;;;23.95;9.55;;;1.20;99.90;;;;;;5034824;28;20516;-72
2024/03/07 07:01:09;;;;;;;31.02;10.82;;;1.20;99.90;;;;;;5035009;28;20033;-71
2024/03/07 07:03:35;;;;;;;22.65;11.25;;;1.20;99.90;;;;;;5028390;28;20021;-71
2024/03/07 07:06:01;;;;;;;22.13;10.68;;;1.30;99.90;;;;;;5028747;28;20033;-69
2024/03/07 07:08:29;;;;;;;20.92;9.63;;;1.70;99.90;;;;;;5036050;28;20068;-71
2024/03/07 07:10:55;;;;;;;26.13;10.52;;;2.90;99.90;;;;;;5038074;28;20029;-72
2024/03/07 07:13:21;;;;;;;;;;;3.60;99.90;;;;;;5034159;28;20032;-70
2024/03/07 07:15:47;;;;;;;21.00;10.80;;;4.70;99.90;;;;;;5034575;28;19921;-72
2024/03/07 07:18:13;;;;;;;15.65;9.65;;;5.50;99.90;;;;;;5034398;28;20107;-74
2024/03/07 07:20:39;;;;;;;;;;;5.80;98.40;;;;;;5037903;28;20837;-72
2024/03/07 07:23:04;;;;;;;21.02;8.18;;;5.90;97.10;;;;;;5034422;28;20003;-69
2024/03/07 07:25:30;;;;;;;18.27;9.03;;;6.10;96.10;;;;;;5026410;28;20022;-71
2024/03/07 07:27:56;;;;;;;22.63;9.45;;;7.80;92.60;;;;;;5038671;28;20055;-71
2024/03/07 07:30:23;;;;;;;24.87;9.27;;;9.00;88.90;;;;;;5035305;28;20656;-72
2024/03/07 07:32:50;;;;;;;16.13;9.98;;;10.30;81.30;;;;;;5034606;28;20380;-71
2024/03/07 07:35:15;;;;;;;;;;;9.30;79.60;;;;;;5033150;28;20559;-71
2024/03/07 07:37:49;;;;;;;16.15;8.80;;;9.50;81.60;;;;;;5030770;28;19917;-72
2024/03/07 07:40:18;;;;;;;18.40;8.40;;;9.30;81.60;;;;;;5038247;28;20396;-71
2024/03/07 07:42:47;;;;;;;23.00;8.85;;;9.20;80.80;;;;;;5031708;28;20033;-69
2024/03/07 07:45:14;;;;;;;17.33;8.60;;;8.40;81.40;;;;;;5036038;28;20170;-69
2024/03/07 07:47:44;;;;;;;15.50;8.52;;;8.60;82.60;;;;;;5034413;28;20099;-69
2024/03/07 07:50:14;;;;;;;24.17;8.68;;;10.30;78.40;;;;;;5030272;28;20044;-69
2024/03/07 07:52:50;;;;;;;16.30;9.25;;;8.40;81.50;;;;;;5028374;28;20032;-69
2024/03/07 07:55:19;;;;;;;17.92;9.35;;;9.20;82.60;;;;;;5027184;28;20060;-69
2024/03/07 07:57:46;;;;;;;20.02;9.30;;;10.70;79.30;;;;;;5039760;28;20108;-70
2024/03/07 08:00:21;;;;;;;17.52;9.15;;;10.50;77.90;;;;;;5037955;28;20053;-68
2024/03/07 08:02:51;;;;;;;15.88;9.43;;;10.20;77.60;;;;;;5034097;28;20025;-70
2024/03/07 08:05:18;;;;;;;16.80;9.55;;;11.00;77.20;;;;;;5033645;28;20041;-70
2024/03/07 08:07:45;;;;;;;17.02;9.75;;;12.30;74.60;;;;;;5038297;28;20033;-71
2024/03/07 08:10:11;;;;;;;19.88;10.02;;;14.30;69.80;;;;;;5039755;28;20585;-70
2024/03/07 08:12:37;;;;;;;22.50;9.17;;;13.30;68.00;;;;;;5039710;28;20096;-70
2024/03/07 08:15:04;;;;;;;20.80;9.30;;;13.40;67.80;;;;;;5037998;28;20052;-70
2024/03/07 08:17:31;;;;;;;18.20;8.90;;;13.50;69.30;;;;;;5038093;28;20033;-71
2024/03/07 08:19:57;;;;;;;15.82;9.00;;;13.60;67.50;;;;;;5039919;28;20034;-70
2024/03/07 08:22:24;;;;;;;19.65;9.52;;;15.50;65.10;;;;;;5036795;28;20095;-70
2024/03/07 08:24:50;;;;;;;17.95;9.10;;;16.40;63.80;;;;;;5041923;28;20025;-70
2024/03/07 08:27:15;;;;;;;19.33;8.90;;;17.60;60.80;;;;;;5041485;28;20063;-71
2024/03/07 08:29:41;;;;;;;24.17;9.03;;;18.50;59.00;;;;;;5037719;28;20075;-71
2024/03/07 08:32:07;;;;;;;14.47;8.47;;;19.40;58.90;;;;;;5037641;28;20060;-71
2024/03/07 08:34:32;;;;;;;13.88;8.10;;;20.70;57.00;;;;;;5035704;28;20346;-70
2024/03/07 08:36:59;;;;;;;14.63;9.10;;;20.60;54.00;;;;;;5038167;28;20492;-72
2024/03/07 08:39:24;;;;;;;10.45;6.72;;;20.90;53.40;;;;;;5037296;28;20120;-71
2024/03/07 08:41:50;;;;;;;13.77;7.40;;;21.20;53.00;;;;;;5039529;28;20037;-71
2024/03/07 08:44:15;;;;;;;13.17;7.83;;;22.00;51.20;;;;;;5039801;28;20154;-71
2024/03/07 08:46:41;;;;;;;46.50;10.03;;;21.90;52.10;;;;;;5037635;28;20086;-72
2024/03/07 08:49:08;;;;;;;15.63;8.02;;;22.40;51.60;;;;;;5033067;28;20416;-71
2024/03/07 08:51:33;;;;;;;15.27;7.35;;;22.90;50.30;;;;;;5039954;28;20051;-71
2024/03/07 08:53:59;;;;;;;13.07;8.20;;;22.70;50.40;;;;;;5038381;28;20485;-72
2024/03/07 08:56:24;;;;;;;12.40;7.85;;;22.80;51.10;;;;;;5035931;28;20064;-71
2024/03/07 08:58:50;;;;;;;18.70;7.37;;;22.50;50.40;;;;;;5039250;28;20041;-72
2024/03/07 09:01:15;;;;;;;13.53;7.73;;;23.20;49.40;;;;;;5039881;28;20072;-72
2024/03/07 09:03:41;;;;;;;58.77;10.17;;;23.70;49.30;;;;;;5034879;28;20102;-73
2024/03/07 09:06:07;;;;;;;13.50;8.40;;;24.20;48.10;;;;;;5038363;28;20060;-73
2024/03/07 09:08:32;;;;;;;13.43;7.67;;;24.20;47.90;;;;;;5032124;28;20029;-73
2024/03/07 09:10:58;;;;;;;15.90;8.63;;;23.90;49.10;;;;;;5029017;28;20287;-74
2024/03/07 09:13:24;;;;;;;13.73;7.80;;;24.20;49.30;;;;;;5029944;28;20485;-74
2024/03/07 09:15:49;;;;;;;13.38;7.28;;;23.80;47.90;;;;;;5032636;28;20832;-74
2024/03/07 09:18:16;;;;;;;11.48;6.88;;;23.90;49.90;;;;;;5030060;28;20030;-74
2024/03/07 09:20:41;;;;;;;17.35;7.72;;;24.50;47.70;;;;;;5031649;28;20037;-74
2024/03/07 09:23:07;;;;;;;19.92;7.75;;;24.80;48.40;;;;;;5037178;28;20034;-73
2024/03/07 09:25:34;;;;;;;13.70;8.38;;;24.70;47.80;;;;;;5037505;28;20236;-72
2024/03/07 09:28:00;;;;;;;14.35;8.52;;;23.80;49.30;;;;;;5026088;28;20040;-73
2024/03/07 09:30:27;;;;;;;15.98;7.78;;;23.60;49.30;;;;;;5038240;28;20025;-73
2024/03/07 09:32:56;;;;;;;17.40;8.27;;;24.40;48.90;;;;;;5032230;28;20043;-73
2024/03/07 09:35:22;;;;;;;19.98;8.38;;;22.60;51.30;;;;;;5028563;28;20037;-74
2024/03/07 09:37:48;;;;;;;12.65;7.85;;;23.20;50.10;;;;;;5030478;28;20029;-72
2024/03/07 09:40:14;;;;;;;14.13;7.15;;;23.80;50.20;;;;;;5034478;28;21685;-71
2024/03/07 09:42:44;;;;;;;13.80;7.45;;;24.70;48.40;;;;;;5036949;28;20111;-71
2024/03/07 09:45:15;;;;;;;16.48;7.70;;;24.50;50.20;;;;;;5033175;28;20107;-74
2024/03/07 09:47:41;;;;;;;17.63;7.15;;;25.20;49.10;;;;;;5039789;28;20152;-72
2024/03/07 09:50:08;;;;;;;11.43;7.18;;;23.30;50.30;;;;;;5035296;28;20108;-72
2024/03/07 09:52:35;;;;;;;10.90;6.63;;;21.10;52.00;;;;;;5032168;28;20045;-72
2024/03/07 09:55:02;;;;;;;9.43;6.40;;;19.50;56.10;;;;;;5037983;28;20094;-71
2024/03/07 09:57:32;;;;;;;11.27;6.82;;;19.70;55.30;;;;;;5036824;28;20021;-71
2024/03/07 09:59:59;;;;;;;12.00;6.95;;;21.10;54.80;;;;;;5036498;28;20033;-72
2024/03/07 10:02:26;;;;;;;11.73;6.90;;;21.30;54.70;;;;;;5036094;28;20029;-74
2024/03/07 10:04:54;;;;;;;9.20;6.22;;;22.10;53.50;;;;;;5029823;28;20040;-72
2024/03/07 10:07:21;;;;;;;11.30;5.35;;;20.70;54.10;;;;;;5036559;28;20068;-71
2024/03/07 10:09:48;;;;;;;8.13;5.45;;;19.20;55.10;;;;;;5035802;28;20040;-72
2024/03/07 10:12:15;;;;;;;7.03;4.90;;;17.30;58.10;;;;;;5037271;28;20037;-71
2024/03/07 10:14:56;;;;;;;;;;;18.10;57.70;;;;;;5032323;28;20128;-71
2024/03/07 10:17:26;;;;;;;7.38;5.30;;;17.10;58.20;;;;;;5039647;28;19913;-72
2024/03/07 10:19:53;;;;;;;6.10;4.28;;;17.70;58.30;;;;;;5038301;28;20021;-71
2024/03/07 10:22:20;;;;;;;7.80;4.35;;;15.60;58.70;;;;;;5038756;28;20049;-72
2024/03/07 10:24:52;;;;;;;6.45;3.63;;;14.90;59.70;;;;;;5033542;28;20068;-70
2024/03/07 10:27:20;;;;;;;4.75;2.72;;;15.00;60.00;;;;;;5035542;28;20028;-71
2024/03/07 10:29:52;;;;;;;4.50;2.78;;;16.00;60.50;;;;;;5038186;28;20045;-72
2024/03/07 10:32:25;;;;;;;4.07;2.60;;;17.50;55.80;;;;;;5035356;28;20039;-71
2024/03/07 10:34:51;;;;;;;4.32;2.58;;;17.50;55.10;;;;;;5043314;28;20519;-72
2024/03/07 10:37:20;;;;;;;5.10;3.22;;;17.30;56.40;;;;;;5034847;28;20115;-72
2024/03/07 10:39:50;;;;;;;4.43;2.83;;;16.10;56.70;;;;;;5038209;28;20033;-71
2024/03/07 10:42:18;;;;;;;5.00;2.40;;;14.80;57.70;;;;;;5035250;28;20052;-72
2024/03/07 10:44:46;;;;;;;7.47;3.10;;;13.20;59.60;;;;;;5037196;28;20061;-71
2024/03/07 10:47:18;;;;;;;4.72;2.58;;;13.90;60.60;;;;;;5033470;28;20037;-73
2024/03/07 10:50:14;;;;;;;5.20;2.97;;;13.40;62.00;;;;;;5037616;28;20087;-71
2024/03/07 10:52:48;;;;;;;4.70;2.83;;;13.00;64.60;;;;;;5032977;28;20029;-72
2024/03/07 10:55:49;;;;;;;6.30;3.78;;;13.10;62.80;;;;;;5027879;28;20056;-69
2024/03/07 10:58:32;;;;;;;3.55;2.80;;;13.20;62.10;;;;;;5027722;28;20044;-70
2024/03/07 11:01:03;;;;;;;4.72;2.60;;;13.40;62.70;;;;;;5038664;28;20112;-71
2024/03/07 11:03:32;;;;;;;4.05;2.72;;;12.80;63.20;;;;;;5033553;28;20029;-71
2024/03/07 11:06:00;;;;;;;5.85;2.67;;;13.60;64.40;;;;;;5046241;28;20029;-71
2024/03/07 11:08:27;;;;;;;5.00;2.55;;;13.50;62.80;;;;;;5037683;28;20029;-71
2024/03/07 11:10:52;;;;;;;4.38;2.83;;;13.20;62.90;;;;;;5036484;28;20029;-70
2024/03/07 11:13:19;;;;;;;7.60;3.10;;;13.40;64.50;;;;;;5027986;28;20025;-70
2024/03/07 11:15:48;;;;;;;4.20;2.30;;;13.80;63.30;;;;;;5031428;28;20041;-72
2024/03/07 11:18:14;;;;;;;6.30;2.92;;;14.20;59.40;;;;;;5034013;28;20170;-70
2024/03/07 11:20:40;;;;;;;3.43;2.67;;;13.90;61.30;;;;;;5029941;28;20104;-70
2024/03/07 11:23:33;;;;;;;4.38;2.53;;;14.30;61.30;;;;;;5026607;28;20446;-69
2024/03/07 11:26:09;;;;;;;3.40;2.20;;;14.20;60.10;;;;;;5037851;28;20681;-74
2024/03/07 11:28:37;;;;;;;3.85;2.45;;;13.60;61.70;;;;;;5040330;28;20032;-74
2024/03/07 11:31:25;;;;;;;8.23;2.50;;;13.40;62.20;;;;;;5040954;28;20043;-71
2024/03/07 11:34:19;;;;;;;5.53;2.20;;;13.20;63.40;;;;;;5039600;28;20099;-70
2024/03/07 11:36:46;;;;;;;5.13;2.58;;;13.00;63.40;;;;;;5032311;28;20037;-73
2024/03/07 11:39:39;;;;;;;6.38;2.22;;;12.90;64.10;;;;;;5040872;28;20021;-71
2024/03/07 11:42:06;;;;;;;4.45;2.20;;;12.90;63.10;;;;;;5026306;28;20080;-69
2024/03/07 11:44:34;;;;;;;4.20;2.03;;;12.70;63.00;;;;;;5039165;28;20029;-69
2024/03/07 11:47:11;;;;;;;4.10;2.53;;;12.80;65.60;;;;;;5028812;28;20366;-70
2024/03/07 11:49:36;;;;;;;5.07;2.42;;;12.60;62.30;;;;;;5031827;28;20180;-70
2024/03/07 11:52:04;;;;;;;5.27;2.63;;;12.50;65.20;;;;;;5034506;28;20120;-72
2024/03/07 11:54:31;;;;;;;3.67;2.40;;;12.70;65.20;;;;;;5036480;28;20412;-73
2024/03/07 11:56:57;;;;;;;8.75;3.03;;;12.20;62.40;;;;;;5041000;28;20025;-74
2024/03/07 11:59:23;;;;;;;4.88;2.58;;;12.20;63.40;;;;;;5029719;28;20527;-70
2024/03/07 12:01:49;;;;;;;6.30;2.47;;;12.30;63.60;;;;;;5034985;28;20023;-72
2024/03/07 12:04:15;;;;;;;4.53;2.80;;;12.20;63.20;;;;;;5039077;28;20108;-70
2024/03/07 12:06:49;;;;;;;;;;;12.10;62.60;;;;;;5030667;28;20029;-69
2024/03/07 12:09:23;;;;;;;6.78;2.20;;;12.20;63.70;;;;;;5037170;28;19916;-68
2024/03/07 12:11:52;;;;;;;2.58;2.00;;;12.10;63.40;;;;;;5029437;28;20030;-76
2024/03/07 12:14:19;;;;;;;5.88;2.17;;;12.40;65.10;;;;;;5033099;28;20265;-75
2024/03/07 12:16:45;;;;;;;3.13;2.30;;;12.50;67.00;;;;;;5038659;28;20141;-70
2024/03/07 12:19:10;;;;;;;4.32;2.00;;;12.90;67.80;;;;;;5037384;28;20112;-72
2024/03/07 12:21:40;;;;;;;2.87;2.27;;;13.00;65.00;;;;;;5037290;28;20576;-71
2024/03/07 12:24:15;;;;;;;5.07;2.20;;;13.20;65.20;;;;;;5036988;28;20039;-70
2024/03/07 12:26:42;;;;;;;4.07;2.15;;;13.20;63.20;;;;;;5030638;28;20132;-70
2024/03/07 12:29:11;;;;;;;3.90;2.38;;;13.10;65.20;;;;;;5039356;28;20029;-69
2024/03/07 12:31:41;;;;;;;2.97;2.08;;;12.80;63.20;;;;;;5040016;28;20075;-70
2024/03/07 12:34:11;;;;;;;3.88;2.53;;;12.90;63.80;;;;;;5034055;28;20523;-71
2024/03/07 12:36:45;;;;;;;3.58;2.63;;;13.30;69.10;;;;;;5026498;28;20037;-70
2024/03/07 12:39:28;;;;;;;5.88;2.95;;;13.00;63.50;;;;;;5027739;28;20430;-69
2024/03/07 12:41:56;;;;;;;3.90;2.50;;;13.00;64.90;;;;;;5026319;28;20033;-70
2024/03/07 12:44:22;;;;;;;3.65;2.40;;;13.10;65.40;;;;;;5038113;28;20115;-69
2024/03/07 12:46:48;;;;;;;4.35;2.58;;;13.00;64.80;;;;;;5032603;28;20067;-70
2024/03/07 12:49:15;;;;;;;3.72;2.25;;;13.00;63.70;;;;;;5030139;28;20046;-70
2024/03/07 12:51:42;;;;;;;5.22;2.58;;;13.00;62.50;;;;;;5034394;28;20021;-69
2024/03/07 12:54:10;;;;;;;;;;;13.00;62.30;;;;;;5023944;28;20120;-73